sensor_id;sensor_type;location;lat;lon;timestamp;pressure;altitude;pressure_sealevel;temperature;humidity
7264;BME280;3673;52.480;13.348;2023-05-19T00:01:11;102272.81;;;16.13;41.19
7264;BME280;3673;52.480;13.348;2023-05-19T00:03:47;102271.91;;;16.02;41.47
7264;BME280;3673;52.480;13.348;2023-05-19T00:06:21;102281.63;;;16.19;40.89
7264;BME280;3673;52.480;13.348;2023-05-19T00:08:49;102288.66;;;16.04;41.14
7264;BME280;3673;52.480;13.348;2023-05-19T00:11:20;102283.38;;;16.04;41.18
7264;BME280;3673;52.480;13.348;2023-05-19T00:13:48;102278.06;;;15.99;41.31
7264;BME280;3673;52.480;13.348;2023-05-19T00:16:18;102285.13;;;16.12;40.92
7264;BME280;3673;52.480;13.348;2023-05-19T00:18:44;102286.91;;;16.04;41.30
7264;BME280;3673;52.480;13.348;2023-05-19T00:21:12;102278.06;;;16.08;41.16
7264;BME280;3673;52.480;13.348;2023-05-19T00:23:38;102282.47;;;16.02;41.07
7264;BME280;3673;52.480;13.348;2023-05-19T00:26:05;102279.84;;;15.91;41.41
7264;BME280;3673;52.480;13.348;2023-05-19T00:28:32;102285.13;;;15.94;40.85
7264;BME280;3673;52.480;13.348;2023-05-19T00:30:59;102273.63;;;15.81;41.72
7264;BME280;3673;52.480;13.348;2023-05-19T00:33:27;102284.19;;;15.78;41.66
7264;BME280;3673;52.480;13.348;2023-05-19T00:35:54;102280.69;;;15.91;41.17
7264;BME280;3673;52.480;13.348;2023-05-19T00:38:21;102278.06;;;15.90;41.19
7264;BME280;3673;52.480;13.348;2023-05-19T00:40:48;102282.47;;;15.89;41.35
7264;BME280;3673;52.480;13.348;2023-05-19T00:43:15;102270.97;;;15.57;42.07
7264;BME280;3673;52.480;13.348;2023-05-19T00:45:42;102274.50;;;15.76;41.48
7264;BME280;3673;52.480;13.348;2023-05-19T00:48:09;102278.88;;;15.65;41.71
7264;BME280;3673;52.480;13.348;2023-05-19T00:50:37;102274.50;;;15.70;41.85
7264;BME280;3673;52.480;13.348;2023-05-19T00:53:04;102273.63;;;15.66;41.94
7264;BME280;3673;52.480;13.348;2023-05-19T00:55:32;102270.97;;;15.60;42.02
7264;BME280;3673;52.480;13.348;2023-05-19T00:58:03;102278.00;;;15.63;41.71
7264;BME280;3673;52.480;13.348;2023-05-19T01:00:30;102274.47;;;15.65;41.76
7264;BME280;3673;52.480;13.348;2023-05-19T01:02:58;102275.38;;;15.63;41.71
7264;BME280;3673;52.480;13.348;2023-05-19T01:05:25;102269.19;;;15.59;41.81
7264;BME280;3673;52.480;13.348;2023-05-19T01:07:54;102277.06;;;15.52;41.85
7264;BME280;3673;52.480;13.348;2023-05-19T01:10:21;102284.19;;;15.68;41.54
7264;BME280;3673;52.480;13.348;2023-05-19T01:12:48;102274.47;;;15.59;41.93
7264;BME280;3673;52.480;13.348;2023-05-19T01:15:15;102272.72;;;15.66;41.47
7264;BME280;3673;52.480;13.348;2023-05-19T01:17:51;102269.09;;;15.42;42.13
7264;BME280;3673;52.480;13.348;2023-05-19T01:20:26;102265.66;;;15.59;41.63
7264;BME280;3673;52.480;13.348;2023-05-19T01:23:19;102269.03;;;15.29;42.27
7264;BME280;3673;52.480;13.348;2023-05-19T01:26:20;102269.06;;;15.35;42.40
7264;BME280;3673;52.480;13.348;2023-05-19T01:29:07;102269.97;;;15.38;42.20
7264;BME280;3673;52.480;13.348;2023-05-19T01:31:41;102270.81;;;15.30;42.10
7264;BME280;3673;52.480;13.348;2023-05-19T01:34:12;102277.00;;;15.33;42.19
7264;BME280;3673;52.480;13.348;2023-05-19T01:36:41;102266.44;;;15.33;42.32
7264;BME280;3673;52.480;13.348;2023-05-19T01:39:09;102274.28;;;15.21;42.37
7264;BME280;3673;52.480;13.348;2023-05-19T01:41:40;102271.69;;;15.29;42.47
7264;BME280;3673;52.480;13.348;2023-05-19T01:44:08;102283.13;;;15.31;42.79
7264;BME280;3673;52.480;13.348;2023-05-19T01:46:36;102279.63;;;15.35;42.24
7264;BME280;3673;52.480;13.348;2023-05-19T01:49:05;102270.88;;;15.45;42.02
7264;BME280;3673;52.480;13.348;2023-05-19T01:51:32;102271.72;;;15.38;41.97
7264;BME280;3673;52.480;13.348;2023-05-19T01:53:59;102269.09;;;15.39;42.04
7264;BME280;3673;52.480;13.348;2023-05-19T01:56:33;102266.44;;;15.36;42.01
7264;BME280;3673;52.480;13.348;2023-05-19T01:59:16;102282.25;;;15.27;42.27
7264;BME280;3673;52.480;13.348;2023-05-19T02:01:52;102270.81;;;15.33;42.21
7264;BME280;3673;52.480;13.348;2023-05-19T02:04:31;102277.81;;;15.25;42.25
7264;BME280;3673;52.480;13.348;2023-05-19T02:07:14;102270.81;;;15.33;42.18
7264;BME280;3673;52.480;13.348;2023-05-19T02:09:51;102281.31;;;15.22;42.34
7264;BME280;3673;52.480;13.348;2023-05-19T02:12:24;102273.44;;;15.24;42.52
7264;BME280;3673;52.480;13.348;2023-05-19T02:15:03;102270.81;;;15.27;42.50
7264;BME280;3673;52.480;13.348;2023-05-19T02:17:35;102272.50;;;15.19;42.57
7264;BME280;3673;52.480;13.348;2023-05-19T02:20:07;102275.16;;;15.22;42.42
7264;BME280;3673;52.480;13.348;2023-05-19T02:22:34;102277.81;;;15.17;42.83
7264;BME280;3673;52.480;13.348;2023-05-19T02:25:01;102278.69;;;15.22;42.63
7264;BME280;3673;52.480;13.348;2023-05-19T02:27:28;102278.69;;;15.22;42.31
7264;BME280;3673;52.480;13.348;2023-05-19T02:29:55;102279.56;;;15.23;42.23
7264;BME280;3673;52.480;13.348;2023-05-19T02:32:22;102276.91;;;15.14;42.64
7264;BME280;3673;52.480;13.348;2023-05-19T02:34:48;102279.50;;;15.09;42.68
7264;BME280;3673;52.480;13.348;2023-05-19T02:37:17;102276.88;;;15.15;42.73
7264;BME280;3673;52.480;13.348;2023-05-19T02:39:44;102266.34;;;15.12;42.60
7264;BME280;3673;52.480;13.348;2023-05-19T02:42:10;102275.06;;;15.05;42.97
7264;BME280;3673;52.480;13.348;2023-05-19T02:44:39;102274.19;;;15.02;42.93
7264;BME280;3673;52.480;13.348;2023-05-19T02:47:06;102263.59;;;14.92;43.07
7264;BME280;3673;52.480;13.348;2023-05-19T02:49:32;102266.25;;;14.94;43.11
7264;BME280;3673;52.480;13.348;2023-05-19T02:52:00;102274.16;;;14.99;42.82
7264;BME280;3673;52.480;13.348;2023-05-19T02:54:29;102264.53;;;14.98;43.11
7264;BME280;3673;52.480;13.348;2023-05-19T02:56:56;102268.06;;;15.06;42.95
7264;BME280;3673;52.480;13.348;2023-05-19T02:59:23;102269.81;;;15.01;42.93
7264;BME280;3673;52.480;13.348;2023-05-19T03:01:53;102275.06;;;15.02;42.77
7264;BME280;3673;52.480;13.348;2023-05-19T03:04:21;102269.88;;;15.17;42.41
7264;BME280;3673;52.480;13.348;2023-05-19T03:06:48;102268.13;;;15.16;42.54
7264;BME280;3673;52.480;13.348;2023-05-19T03:09:15;102265.44;;;15.09;42.74
7264;BME280;3673;52.480;13.348;2023-05-19T03:11:43;102274.22;;;15.09;43.01
7264;BME280;3673;52.480;13.348;2023-05-19T03:14:09;102258.38;;;14.97;43.01
7264;BME280;3673;52.480;13.348;2023-05-19T03:16:36;102259.13;;;14.79;43.60
7264;BME280;3673;52.480;13.348;2023-05-19T03:19:05;102261.78;;;14.81;43.45
7264;BME280;3673;52.480;13.348;2023-05-19T03:21:32;102263.47;;;14.71;43.86
7264;BME280;3673;52.480;13.348;2023-05-19T03:23:59;102256.50;;;14.79;43.74
7264;BME280;3673;52.480;13.348;2023-05-19T03:26:26;102263.44;;;14.64;43.68
7264;BME280;3673;52.480;13.348;2023-05-19T03:28:55;102262.66;;;14.83;43.58
7264;BME280;3673;52.480;13.348;2023-05-19T03:31:21;102260.97;;;14.92;43.07
7264;BME280;3673;52.480;13.348;2023-05-19T03:33:48;102260.78;;;14.61;43.95
7264;BME280;3673;52.480;13.348;2023-05-19T03:36:15;102257.38;;;14.81;43.83
7264;BME280;3673;52.480;13.348;2023-05-19T03:38:42;102258.25;;;14.82;43.59
7264;BME280;3673;52.480;13.348;2023-05-19T03:41:08;102259.16;;;14.82;43.62
7264;BME280;3673;52.480;13.348;2023-05-19T03:43:35;102256.56;;;14.91;43.49
7264;BME280;3673;52.480;13.348;2023-05-19T03:46:03;102249.53;;;14.87;43.76
7264;BME280;3673;52.480;13.348;2023-05-19T03:48:30;102257.50;;;15.00;43.33
7264;BME280;3673;52.480;13.348;2023-05-19T03:50:57;102259.19;;;14.90;43.67
7264;BME280;3673;52.480;13.348;2023-05-19T03:53:23;102262.75;;;15.01;43.24
7264;BME280;3673;52.480;13.348;2023-05-19T03:55:50;102258.31;;;14.89;43.50
7264;BME280;3673;52.480;13.348;2023-05-19T03:58:17;102253.97;;;14.99;43.39
7264;BME280;3673;52.480;13.348;2023-05-19T04:00:44;102252.22;;;15.03;43.62
7264;BME280;3673;52.480;13.348;2023-05-19T04:03:12;102261.91;;;15.01;43.80
7264;BME280;3673;52.480;13.348;2023-05-19T04:05:39;102258.38;;;14.97;43.82
7264;BME280;3673;52.480;13.348;2023-05-19T04:08:05;102263.63;;;14.99;43.61
7264;BME280;3673;52.480;13.348;2023-05-19T04:10:32;102264.47;;;14.87;44.06
7264;BME280;3673;52.480;13.348;2023-05-19T04:12:59;102261.81;;;14.88;43.98
7264;BME280;3673;52.480;13.348;2023-05-19T04:15:26;102261.91;;;15.08;43.52
7264;BME280;3673;52.480;13.348;2023-05-19T04:17:52;102262.75;;;15.00;43.85
7264;BME280;3673;52.480;13.348;2023-05-19T04:20:21;102261.00;;;14.97;43.85
7264;BME280;3673;52.480;13.348;2023-05-19T04:22:48;102263.69;;;15.08;43.74
7264;BME280;3673;52.480;13.348;2023-05-19T04:25:15;102259.34;;;15.14;43.67
7264;BME280;3673;52.480;13.348;2023-05-19T04:27:41;102263.75;;;15.23;43.60
7264;BME280;3673;52.480;13.348;2023-05-19T04:30:09;102264.66;;;15.26;43.61
7264;BME280;3673;52.480;13.348;2023-05-19T04:32:36;102273.44;;;15.28;43.47
7264;BME280;3673;52.480;13.348;2023-05-19T04:35:04;102274.31;;;15.32;43.51
7264;BME280;3673;52.480;13.348;2023-05-19T04:37:32;102277.03;;;15.44;43.29
7264;BME280;3673;52.480;13.348;2023-05-19T04:40:03;102273.50;;;15.37;43.64
7264;BME280;3673;52.480;13.348;2023-05-19T04:42:32;102273.44;;;15.34;43.71
7264;BME280;3673;52.480;13.348;2023-05-19T04:44:59;102263.84;;;15.41;43.40
7264;BME280;3673;52.480;13.348;2023-05-19T04:47:28;102262.19;;;15.69;43.10
7264;BME280;3673;52.480;13.348;2023-05-19T04:49:55;102271.88;;;15.73;43.33
7264;BME280;3673;52.480;13.348;2023-05-19T04:52:21;102274.47;;;15.62;43.15
7264;BME280;3673;52.480;13.348;2023-05-19T04:54:49;102278.91;;;15.81;43.30
7264;BME280;3673;52.480;13.348;2023-05-19T04:57:17;102277.19;;;16.02;42.57
7264;BME280;3673;52.480;13.348;2023-05-19T04:59:44;102278.97;;;16.00;42.65
7264;BME280;3673;52.480;13.348;2023-05-19T05:02:10;102277.22;;;16.21;42.45
7264;BME280;3673;52.480;13.348;2023-05-19T05:04:37;102283.38;;;16.20;42.61
7264;BME280;3673;52.480;13.348;2023-05-19T05:07:07;102266.66;;;16.14;42.48
7264;BME280;3673;52.480;13.348;2023-05-19T05:09:34;102264.91;;;16.40;42.19
7264;BME280;3673;52.480;13.348;2023-05-19T05:12:03;102273.69;;;16.16;42.56
7264;BME280;3673;52.480;13.348;2023-05-19T05:14:33;102276.34;;;16.25;42.63
7264;BME280;3673;52.480;13.348;2023-05-19T05:17:01;102267.53;;;16.52;41.91
7264;BME280;3673;52.480;13.348;2023-05-19T05:19:28;102272.84;;;16.31;42.42
7264;BME280;3673;52.480;13.348;2023-05-19T05:21:56;102276.34;;;16.43;42.17
7264;BME280;3673;52.480;13.348;2023-05-19T05:24:24;102272.81;;;16.52;41.89
7264;BME280;3673;52.480;13.348;2023-05-19T05:26:51;102276.34;;;16.37;42.56
7264;BME280;3673;52.480;13.348;2023-05-19T05:29:20;102272.81;;;16.49;42.12
7264;BME280;3673;52.480;13.348;2023-05-19T05:31:46;102272.81;;;16.58;42.55
7264;BME280;3673;52.480;13.348;2023-05-19T05:34:13;102282.53;;;16.62;42.29
7264;BME280;3673;52.480;13.348;2023-05-19T05:36:40;102271.06;;;16.66;42.06
7264;BME280;3673;52.480;13.348;2023-05-19T05:39:07;102276.34;;;16.69;42.19
7264;BME280;3673;52.480;13.348;2023-05-19T05:41:34;102266.66;;;16.76;41.83
7264;BME280;3673;52.480;13.348;2023-05-19T05:44:01;102266.66;;;16.76;41.87
7264;BME280;3673;52.480;13.348;2023-05-19T05:46:30;102272.81;;;16.79;41.84
7264;BME280;3673;52.480;13.348;2023-05-19T05:48:58;102272.81;;;16.81;41.81
7264;BME280;3673;52.480;13.348;2023-05-19T05:51:25;102273.72;;;16.63;42.17
7264;BME280;3673;52.480;13.348;2023-05-19T05:53:53;102277.25;;;16.61;42.13
7264;BME280;3673;52.480;13.348;2023-05-19T05:56:21;102271.06;;;16.59;42.18
7264;BME280;3673;52.480;13.348;2023-05-19T05:58:48;102275.50;;;16.57;42.28
7264;BME280;3673;52.480;13.348;2023-05-19T06:01:15;102284.28;;;16.51;42.50
7264;BME280;3673;52.480;13.348;2023-05-19T06:03:43;102275.44;;;16.84;41.96
7264;BME280;3673;52.480;13.348;2023-05-19T06:06:10;102277.19;;;16.82;42.01
7264;BME280;3673;52.480;13.348;2023-05-19T06:08:37;102276.28;;;16.92;42.04
7264;BME280;3673;52.480;13.348;2023-05-19T06:11:07;102271.03;;;16.81;42.18
7264;BME280;3673;52.480;13.348;2023-05-19T06:13:35;102274.44;;;17.18;41.59
7264;BME280;3673;52.480;13.348;2023-05-19T06:16:03;102272.72;;;17.13;41.88
7264;BME280;3673;52.480;13.348;2023-05-19T06:18:31;102270.91;;;17.25;41.49
7264;BME280;3673;52.480;13.348;2023-05-19T06:20:59;102272.72;;;17.17;41.78
7264;BME280;3673;52.480;13.348;2023-05-19T06:23:26;102263.78;;;17.44;41.21
7264;BME280;3673;52.480;13.348;2023-05-19T06:25:53;102274.34;;;17.47;41.10
7264;BME280;3673;52.480;13.348;2023-05-19T06:28:23;102271.69;;;17.48;41.08
7264;BME280;3673;52.480;13.348;2023-05-19T06:30:50;102276.13;;;17.43;41.54
7264;BME280;3673;52.480;13.348;2023-05-19T06:33:17;102285.78;;;17.64;40.83
7264;BME280;3673;52.480;13.348;2023-05-19T06:35:44;102279.66;;;17.42;41.25
7264;BME280;3673;52.480;13.348;2023-05-19T06:38:13;102274.31;;;17.50;41.34
7264;BME280;3673;52.480;13.348;2023-05-19T06:40:40;102275.28;;;17.37;41.57
7264;BME280;3673;52.480;13.348;2023-05-19T06:43:07;102276.97;;;17.59;41.36
7264;BME280;3673;52.480;13.348;2023-05-19T06:45:34;102279.59;;;17.59;41.78
7264;BME280;3673;52.480;13.348;2023-05-19T06:48:01;102275.09;;;17.81;41.12
7264;BME280;3673;52.480;13.348;2023-05-19T06:50:28;102267.91;;;17.95;40.94
7264;BME280;3673;52.480;13.348;2023-05-19T06:52:55;102274.16;;;17.88;40.81
7264;BME280;3673;52.480;13.348;2023-05-19T06:55:27;102274.91;;;18.07;40.75
7264;BME280;3673;52.480;13.348;2023-05-19T06:57:54;102271.31;;;18.12;40.87
7264;BME280;3673;52.480;13.348;2023-05-19T07:00:22;102275.53;;;18.37;40.31
7264;BME280;3673;52.480;13.348;2023-05-19T07:02:49;102274.63;;;18.40;40.33
7264;BME280;3673;52.480;13.348;2023-05-19T07:05:16;102277.19;;;18.54;39.53
7264;BME280;3673;52.480;13.348;2023-05-19T07:07:43;102276.41;;;18.39;39.76
7264;BME280;3673;52.480;13.348;2023-05-19T07:10:10;102275.44;;;18.45;39.84
7264;BME280;3673;52.480;13.348;2023-05-19T07:12:39;102269.13;;;18.67;39.58
7264;BME280;3673;52.480;13.348;2023-05-19T07:15:06;102278.94;;;18.56;39.58
7264;BME280;3673;52.480;13.348;2023-05-19T07:17:33;102271.41;;;19.00;38.79
7264;BME280;3673;52.480;13.348;2023-05-19T07:20:00;102273.09;;;19.08;38.61
7264;BME280;3673;52.480;13.348;2023-05-19T07:22:31;102272.06;;;19.21;38.80
7264;BME280;3673;52.480;13.348;2023-05-19T07:24:59;102266.50;;;19.39;38.32
7264;BME280;3673;52.480;13.348;2023-05-19T07:27:26;102265.63;;;19.40;38.32
7264;BME280;3673;52.480;13.348;2023-05-19T07:29:54;102273.34;;;19.60;37.72
7264;BME280;3673;52.480;13.348;2023-05-19T07:32:21;102268.03;;;19.61;37.65
7264;BME280;3673;52.480;13.348;2023-05-19T07:34:48;102266.75;;;19.86;37.32
7264;BME280;3673;52.480;13.348;2023-05-19T07:37:15;102263.91;;;19.98;36.94
7264;BME280;3673;52.480;13.348;2023-05-19T07:39:42;102264.34;;;20.26;36.36
7264;BME280;3673;52.480;13.348;2023-05-19T07:42:09;102262.34;;;20.42;36.33
7264;BME280;3673;52.480;13.348;2023-05-19T07:44:36;102256.25;;;20.35;36.33
7264;BME280;3673;52.480;13.348;2023-05-19T07:47:04;102260.91;;;20.72;35.77
7264;BME280;3673;52.480;13.348;2023-05-19T07:49:31;102259.81;;;20.85;35.74
7264;BME280;3673;52.480;13.348;2023-05-19T07:51:58;102257.59;;;21.05;35.05
7264;BME280;3673;52.480;13.348;2023-05-19T07:54:25;102259.00;;;20.81;35.59
7264;BME280;3673;52.480;13.348;2023-05-19T07:56:52;102253.50;;;20.89;35.34
7264;BME280;3673;52.480;13.348;2023-05-19T07:59:19;102260.66;;;20.87;35.77
7264;BME280;3673;52.480;13.348;2023-05-19T08:01:46;102251.00;;;21.26;34.65
7264;BME280;3673;52.480;13.348;2023-05-19T08:04:15;102256.47;;;21.20;34.66
7264;BME280;3673;52.480;13.348;2023-05-19T08:06:42;102247.66;;;21.16;35.06
7264;BME280;3673;52.480;13.348;2023-05-19T08:09:09;102244.91;;;21.21;34.76
7264;BME280;3673;52.480;13.348;2023-05-19T08:11:36;102254.25;;;21.40;34.24
7264;BME280;3673;52.480;13.348;2023-05-19T08:14:03;102249.09;;;21.72;34.01
7264;BME280;3673;52.480;13.348;2023-05-19T08:16:30;102253.97;;;21.92;33.48
7264;BME280;3673;52.480;13.348;2023-05-19T08:18:57;102247.50;;;22.03;33.37
7264;BME280;3673;52.480;13.348;2023-05-19T08:21:28;102253.53;;;22.10;32.39
7264;BME280;3673;52.480;13.348;2023-05-19T08:23:55;102256.22;;;22.10;32.85
7264;BME280;3673;52.480;13.348;2023-05-19T08:26:22;102252.91;;;21.99;32.90
7264;BME280;3673;52.480;13.348;2023-05-19T08:28:49;102250.91;;;22.08;33.44
7264;BME280;3673;52.480;13.348;2023-05-19T08:31:16;102262.44;;;22.11;32.91
7264;BME280;3673;52.480;13.348;2023-05-19T08:33:43;102263.78;;;22.28;31.59
7264;BME280;3673;52.480;13.348;2023-05-19T08:36:10;102256.25;;;22.44;31.63
7264;BME280;3673;52.480;13.348;2023-05-19T08:38:38;102248.13;;;22.13;31.86
7264;BME280;3673;52.480;13.348;2023-05-19T08:41:05;102255.72;;;21.94;31.85
7264;BME280;3673;52.480;13.348;2023-05-19T08:43:32;102256.44;;;22.36;31.62
7264;BME280;3673;52.480;13.348;2023-05-19T08:45:59;102244.81;;;22.39;31.78
7264;BME280;3673;52.480;13.348;2023-05-19T08:48:28;102239.66;;;22.65;31.28
7264;BME280;3673;52.480;13.348;2023-05-19T08:51:03;102247.56;;;22.71;31.53
7264;BME280;3673;52.480;13.348;2023-05-19T08:53:36;102241.88;;;22.49;31.66
7264;BME280;3673;52.480;13.348;2023-05-19T08:56:10;102242.22;;;22.71;31.48
7264;BME280;3673;52.480;13.348;2023-05-19T08:58:41;102244.97;;;22.33;31.96
7264;BME280;3673;52.480;13.348;2023-05-19T09:01:09;102241.94;;;22.46;31.63
7264;BME280;3673;52.480;13.348;2023-05-19T09:03:36;102231.81;;;22.59;31.26
7264;BME280;3673;52.480;13.348;2023-05-19T09:06:05;102234.06;;;22.42;31.14
7264;BME280;3673;52.480;13.348;2023-05-19T09:08:32;102228.97;;;22.33;31.16
7264;BME280;3673;52.480;13.348;2023-05-19T09:10:59;102228.13;;;21.95;31.69
7264;BME280;3673;52.480;13.348;2023-05-19T09:13:28;102230.59;;;22.04;32.23
7264;BME280;3673;52.480;13.348;2023-05-19T09:15:55;102229.94;;;21.95;32.53
7264;BME280;3673;52.480;13.348;2023-05-19T09:18:24;102216.41;;;22.02;32.22
7264;BME280;3673;52.480;13.348;2023-05-19T09:20:56;102216.50;;;22.35;31.72
7264;BME280;3673;52.480;13.348;2023-05-19T09:23:26;102204.59;;;22.46;31.07
7264;BME280;3673;52.480;13.348;2023-05-19T09:25:55;102202.03;;;22.76;30.15
7264;BME280;3673;52.480;13.348;2023-05-19T09:28:23;102201.94;;;23.40;29.32
7264;BME280;3673;52.480;13.348;2023-05-19T09:30:59;102199.19;;;23.42;29.49
7264;BME280;3673;52.480;13.348;2023-05-19T09:33:27;102202.88;;;23.67;29.06
7264;BME280;3673;52.480;13.348;2023-05-19T09:35:54;102196.47;;;23.45;28.77
7264;BME280;3673;52.480;13.348;2023-05-19T09:38:22;102193.63;;;23.20;29.25
7264;BME280;3673;52.480;13.348;2023-05-19T09:40:49;102191.25;;;22.80;28.49
7264;BME280;3673;52.480;13.348;2023-05-19T09:43:17;102203.88;;;22.74;28.66
7264;BME280;3673;52.480;13.348;2023-05-19T09:45:44;102186.03;;;23.06;28.45
7264;BME280;3673;52.480;13.348;2023-05-19T09:48:13;102198.97;;;23.77;27.04
7264;BME280;3673;52.480;13.348;2023-05-19T09:50:42;102182.63;;;23.31;27.43
7264;BME280;3673;52.480;13.348;2023-05-19T09:53:12;102191.13;;;23.45;27.57
7264;BME280;3673;52.480;13.348;2023-05-19T09:55:39;102187.06;;;23.30;27.92
7264;BME280;3673;52.480;13.348;2023-05-19T09:58:08;102193.44;;;23.55;27.55
7264;BME280;3673;52.480;13.348;2023-05-19T10:00:35;102185.22;;;24.16;26.62
7264;BME280;3673;52.480;13.348;2023-05-19T10:03:04;102179.78;;;24.19;26.00
7264;BME280;3673;52.480;13.348;2023-05-19T10:05:32;102179.47;;;24.01;26.46
7264;BME280;3673;52.480;13.348;2023-05-19T10:07:59;102178.91;;;23.64;26.98
7264;BME280;3673;52.480;13.348;2023-05-19T10:10:27;102177.75;;;23.99;26.72
7264;BME280;3673;52.480;13.348;2023-05-19T10:12:54;102170.59;;;23.99;26.77
7264;BME280;3673;52.480;13.348;2023-05-19T10:15:22;102164.72;;;24.41;26.52
7264;BME280;3673;52.480;13.348;2023-05-19T10:17:49;102174.50;;;24.67;26.27
7264;BME280;3673;52.480;13.348;2023-05-19T10:20:16;102172.31;;;24.53;25.95
7264;BME280;3673;52.480;13.348;2023-05-19T10:22:45;102177.34;;;24.87;25.34
7264;BME280;3673;52.480;13.348;2023-05-19T10:25:13;102157.50;;;24.68;26.40
7264;BME280;3673;52.480;13.348;2023-05-19T10:27:49;102175.06;;;25.23;24.54
7264;BME280;3673;52.480;13.348;2023-05-19T10:30:20;102177.94;;;25.40;24.68
7264;BME280;3673;52.480;13.348;2023-05-19T10:32:49;102174.75;;;25.53;24.52
7264;BME280;3673;52.480;13.348;2023-05-19T10:36:01;102174.13;;;25.00;24.86
7264;BME280;3673;52.480;13.348;2023-05-19T10:38:41;102172.31;;;25.24;24.70
7264;BME280;3673;52.480;13.348;2023-05-19T10:41:21;102161.47;;;25.50;24.21
7264;BME280;3673;52.480;13.348;2023-05-19T10:43:57;102163.00;;;25.99;24.12
7264;BME280;3673;52.480;13.348;2023-05-19T10:46:29;102174.13;;;25.45;24.15
7264;BME280;3673;52.480;13.348;2023-05-19T10:48:56;102165.56;;;25.37;24.75
7264;BME280;3673;52.480;13.348;2023-05-19T10:51:29;102158.66;;;25.53;24.17
7264;BME280;3673;52.480;13.348;2023-05-19T10:54:01;102139.19;;;26.12;24.10
7264;BME280;3673;52.480;13.348;2023-05-19T10:56:35;102145.88;;;26.24;23.06
7264;BME280;3673;52.480;13.348;2023-05-19T10:59:31;102151.28;;;26.42;22.81
7264;BME280;3673;52.480;13.348;2023-05-19T11:02:02;102153.63;;;25.68;23.82
7264;BME280;3673;52.480;13.348;2023-05-19T11:04:39;102150.63;;;25.08;25.23
7264;BME280;3673;52.480;13.348;2023-05-19T11:07:16;102163.91;;;24.39;26.04
7264;BME280;3673;52.480;13.348;2023-05-19T11:09:49;102155.28;;;25.03;25.17
7264;BME280;3673;52.480;13.348;2023-05-19T11:12:19;102156.81;;;25.32;25.11
7264;BME280;3673;52.480;13.348;2023-05-19T11:14:47;102149.91;;;26.12;23.64
7264;BME280;3673;52.480;13.348;2023-05-19T11:17:15;102142.69;;;25.94;24.37
7264;BME280;3673;52.480;13.348;2023-05-19T11:19:52;102138.97;;;25.96;24.35
7264;BME280;3673;52.480;13.348;2023-05-19T11:22:23;102129.78;;;25.82;23.90
7264;BME280;3673;52.480;13.348;2023-05-19T11:24:53;102147.63;;;25.16;24.37
7264;BME280;3673;52.480;13.348;2023-05-19T11:27:26;102144.28;;;25.33;24.44
7264;BME280;3673;52.480;13.348;2023-05-19T11:29:56;102131.50;;;25.18;24.60
7264;BME280;3673;52.480;13.348;2023-05-19T11:32:27;102128.91;;;24.93;24.78
7264;BME280;3673;52.480;13.348;2023-05-19T11:34:55;102140.38;;;24.96;24.88
7264;BME280;3673;52.480;13.348;2023-05-19T11:37:22;102131.56;;;24.93;25.26
7264;BME280;3673;52.480;13.348;2023-05-19T11:39:49;102127.91;;;25.40;24.43
7264;BME280;3673;52.480;13.348;2023-05-19T11:42:18;102130.09;;;25.52;23.77
7264;BME280;3673;52.480;13.348;2023-05-19T11:44:45;102117.84;;;25.45;24.02
7264;BME280;3673;52.480;13.348;2023-05-19T11:47:12;102128.13;;;24.89;25.06
7264;BME280;3673;52.480;13.348;2023-05-19T11:49:42;102117.44;;;24.89;24.77
7264;BME280;3673;52.480;13.348;2023-05-19T11:52:10;102123.38;;;24.73;25.33
7264;BME280;3673;52.480;13.348;2023-05-19T11:54:37;102121.47;;;24.53;24.99
7264;BME280;3673;52.480;13.348;2023-05-19T11:57:07;102118.13;;;24.46;25.13
7264;BME280;3673;52.480;13.348;2023-05-19T11:59:37;102124.34;;;24.72;24.94
7264;BME280;3673;52.480;13.348;2023-05-19T12:02:16;102120.16;;;24.40;25.30
7264;BME280;3673;52.480;13.348;2023-05-19T12:04:44;102125.81;;;24.55;25.19
7264;BME280;3673;52.480;13.348;2023-05-19T12:07:11;102123.63;;;24.91;24.94
7264;BME280;3673;52.480;13.348;2023-05-19T12:09:39;102116.63;;;24.87;25.16
7264;BME280;3673;52.480;13.348;2023-05-19T12:12:07;102121.84;;;25.14;24.78
7264;BME280;3673;52.480;13.348;2023-05-19T12:14:35;102123.41;;;24.96;25.26
7264;BME280;3673;52.480;13.348;2023-05-19T12:17:10;102123.03;;;24.83;25.18
7264;BME280;3673;52.480;13.348;2023-05-19T12:19:38;102125.94;;;25.22;24.84
7264;BME280;3673;52.480;13.348;2023-05-19T12:22:06;102129.94;;;24.89;25.38
7264;BME280;3673;52.480;13.348;2023-05-19T12:24:34;102113.59;;;24.96;24.95
7264;BME280;3673;52.480;13.348;2023-05-19T12:27:09;102106.56;;;24.94;24.52
7264;BME280;3673;52.480;13.348;2023-05-19T12:29:39;102105.72;;;25.80;23.93
7264;BME280;3673;52.480;13.348;2023-05-19T12:32:07;102114.22;;;26.71;22.69
7264;BME280;3673;52.480;13.348;2023-05-19T12:34:35;102101.41;;;26.57;22.81
7264;BME280;3673;52.480;13.348;2023-05-19T12:37:03;102104.09;;;26.38;22.91
7264;BME280;3673;52.480;13.348;2023-05-19T12:39:30;102105.38;;;25.68;23.23
7264;BME280;3673;52.480;13.348;2023-05-19T12:42:01;102106.09;;;25.28;24.33
7264;BME280;3673;52.480;13.348;2023-05-19T12:44:28;102110.63;;;25.26;24.30
7264;BME280;3673;52.480;13.348;2023-05-19T12:46:57;102103.72;;;25.85;23.92
7264;BME280;3673;52.480;13.348;2023-05-19T12:49:25;102086.63;;;26.67;23.16
7264;BME280;3673;52.480;13.348;2023-05-19T12:51:52;102095.13;;;27.51;22.19
7264;BME280;3673;52.480;13.348;2023-05-19T12:54:20;102088.72;;;27.54;22.06
7264;BME280;3673;52.480;13.348;2023-05-19T12:56:50;102094.63;;;28.13;21.49
7264;BME280;3673;52.480;13.348;2023-05-19T12:59:22;102092.56;;;28.69;20.43
7264;BME280;3673;52.480;13.348;2023-05-19T13:01:57;102082.66;;;29.16;20.28
7264;BME280;3673;52.480;13.348;2023-05-19T13:04:25;102087.44;;;29.42;20.07
7264;BME280;3673;52.480;13.348;2023-05-19T13:06:52;102083.91;;;29.26;20.63
7264;BME280;3673;52.480;13.348;2023-05-19T13:09:19;102090.16;;;29.88;20.14